createdAt,value
2022-09-09T00:01:15.210Z,22.70
2022-09-09T00:03:49.291Z,22.71
2022-09-09T00:06:36.422Z,22.69
2022-09-09T00:09:13.926Z,22.67
2022-09-09T00:11:52.869Z,22.63
2022-09-09T00:14:49.103Z,22.55
2022-09-09T00:17:34.231Z,22.52
2022-09-09T00:20:10.607Z,22.50
2022-09-09T00:22:41.011Z,22.45
2022-09-09T00:25:25.898Z,22.39
2022-09-09T00:27:52.434Z,22.40
2022-09-09T00:30:23.450Z,22.39
2022-09-09T00:32:59.126Z,22.35
2022-09-09T00:35:28.643Z,22.33
2022-09-09T00:37:59.150Z,22.30
2022-09-09T00:40:39.597Z,22.27
2022-09-09T00:43:33.757Z,22.26
2022-09-09T00:46:19.302Z,22.28
2022-09-09T00:48:48.865Z,22.26
2022-09-09T00:51:34.292Z,22.23
2022-09-09T00:54:28.134Z,22.22
2022-09-09T00:57:20.837Z,22.21
2022-09-09T01:00:18.419Z,22.19
2022-09-09T01:03:00.144Z,22.17
2022-09-09T01:05:36.089Z,22.16
2022-09-09T01:08:12.952Z,22.16
2022-09-09T01:10:50.667Z,22.15
2022-09-09T01:13:31.439Z,22.14
2022-09-09T01:16:06.760Z,22.17
2022-09-09T01:18:38.192Z,22.18
2022-09-09T01:21:16.792Z,22.20
2022-09-09T01:23:50.151Z,22.19
2022-09-09T01:26:22.463Z,22.21
2022-09-09T01:28:53.504Z,22.22
2022-09-09T01:31:24.268Z,22.23
2022-09-09T01:33:51.176Z,22.24
2022-09-09T01:36:27.225Z,22.23
2022-09-09T01:38:54.395Z,22.25
2022-09-09T01:41:20.973Z,22.24
2022-09-09T01:43:48.603Z,22.21
2022-09-09T01:46:15.823Z,22.20
2022-09-09T01:48:43.707Z,22.18
2022-09-09T01:51:14.154Z,22.19
2022-09-09T01:53:43.839Z,22.18
2022-09-09T01:56:39.599Z,22.16
2022-09-09T01:59:25.448Z,22.18
2022-09-09T02:02:19.134Z,22.18
2022-09-09T02:04:49.459Z,22.19
2022-09-09T02:07:42.229Z,22.14
2022-09-09T02:10:18.569Z,22.16
2022-09-09T02:12:49.791Z,22.18
2022-09-09T02:15:33.818Z,22.15
2022-09-09T02:18:04.925Z,22.17
2022-09-09T02:20:35.179Z,22.16
2022-09-09T02:23:03.668Z,22.16
2022-09-09T02:25:31.312Z,22.15
2022-09-09T02:28:01.262Z,22.16
2022-09-09T02:30:30.987Z,22.17
2022-09-09T02:32:59.822Z,22.18
2022-09-09T02:35:29.251Z,22.21
2022-09-09T02:38:00.441Z,22.22
2022-09-09T02:40:27.033Z,22.25
2022-09-09T02:42:55.874Z,22.26
2022-09-09T02:45:29.707Z,22.27
2022-09-09T02:48:20.964Z,22.28
2022-09-09T02:51:13.644Z,22.31
2022-09-09T02:54:14.463Z,22.32
2022-09-09T02:56:46.949Z,22.35
2022-09-09T02:59:13.840Z,22.36
2022-09-09T03:01:41.138Z,22.37
2022-09-09T03:04:07.671Z,22.37
2022-09-09T03:06:34.481Z,22.36
2022-09-09T03:09:02.755Z,22.38
2022-09-09T03:11:29.619Z,22.38
2022-09-09T03:13:57.075Z,22.40
2022-09-09T03:16:24.506Z,22.40
2022-09-09T03:18:51.444Z,22.43
2022-09-09T03:21:17.925Z,22.44
2022-09-09T03:23:45.906Z,22.45
2022-09-09T03:26:12.416Z,22.45
2022-09-09T03:28:38.888Z,22.45
2022-09-09T03:31:06.592Z,22.43
2022-09-09T03:33:33.066Z,22.42
2022-09-09T03:35:59.543Z,22.41
2022-09-09T03:38:26.566Z,22.40
2022-09-09T03:40:56.519Z,22.40
2022-09-09T03:43:24.151Z,22.40
2022-09-09T03:45:50.929Z,22.41
2022-09-09T03:48:18.515Z,22.42
2022-09-09T03:50:50.148Z,22.40
2022-09-09T03:53:18.332Z,22.43
2022-09-09T03:55:49.179Z,22.43
2022-09-09T03:58:16.865Z,22.45
2022-09-09T04:00:45.993Z,22.46
2022-09-09T04:03:13.116Z,22.48
2022-09-09T04:05:43.358Z,22.46
2022-09-09T04:08:10.008Z,22.49
2022-09-09T04:10:38.176Z,22.50
2022-09-09T04:13:05.466Z,22.50
2022-09-09T04:15:32.518Z,22.52
2022-09-09T04:17:59.071Z,22.52
2022-09-09T04:20:25.622Z,22.53
2022-09-09T04:22:52.088Z,22.54
2022-09-09T04:25:18.571Z,22.55
2022-09-09T04:27:45.169Z,22.56
2022-09-09T04:30:13.211Z,22.56
2022-09-09T04:32:39.697Z,22.56
2022-09-09T04:35:06.348Z,22.56
2022-09-09T04:37:32.859Z,22.55
2022-09-09T04:40:00.448Z,22.55
2022-09-09T04:42:27.036Z,22.55
2022-09-09T04:44:53.490Z,22.54
2022-09-09T04:47:19.951Z,22.52
2022-09-09T04:49:46.632Z,22.51
2022-09-09T04:52:13.364Z,22.51
2022-09-09T04:54:39.955Z,22.51
2022-09-09T04:57:06.431Z,22.52
2022-09-09T04:59:32.882Z,22.51
2022-09-09T05:02:02.013Z,22.52
2022-09-09T05:04:29.764Z,22.51
2022-09-09T05:06:56.896Z,22.52
2022-09-09T05:09:23.470Z,22.53
2022-09-09T05:11:49.928Z,22.54
2022-09-09T05:14:16.459Z,22.55
2022-09-09T05:16:45.383Z,22.55
2022-09-09T05:19:12.661Z,22.57
2022-09-09T05:21:39.348Z,22.57
2022-09-09T05:24:05.909Z,22.60
2022-09-09T05:26:33.417Z,22.62
2022-09-09T05:29:01.392Z,22.63
2022-09-09T05:31:29.358Z,22.64
2022-09-09T05:33:55.895Z,22.65
2022-09-09T05:36:23.579Z,22.65
2022-09-09T05:38:50.943Z,22.66
2022-09-09T05:41:18.502Z,22.65
2022-09-09T05:43:46.564Z,22.64
2022-09-09T05:46:15.268Z,22.66
2022-09-09T05:48:53.162Z,22.64
2022-09-09T05:51:22.769Z,22.65
2022-09-09T05:53:49.850Z,22.67
2022-09-09T05:56:26.174Z,22.66
2022-09-09T05:58:54.925Z,22.69
2022-09-09T06:01:33.717Z,22.67
2022-09-09T06:04:00.605Z,22.70
2022-09-09T06:06:31.152Z,22.71
2022-09-09T06:08:59.126Z,22.72
2022-09-09T06:11:33.594Z,22.69
2022-09-09T06:14:00.704Z,22.72
2022-09-09T06:16:28.915Z,22.72
2022-09-09T06:18:57.393Z,22.72
2022-09-09T06:21:27.224Z,22.73
2022-09-09T06:23:57.812Z,22.73
2022-09-09T06:26:37.973Z,22.75
2022-09-09T06:29:05.787Z,22.80
2022-09-09T06:31:35.481Z,22.82
2022-09-09T06:34:03.091Z,22.84
2022-09-09T06:36:32.187Z,22.86
2022-09-09T06:38:59.222Z,22.89
2022-09-09T06:41:29.515Z,22.91
2022-09-09T06:43:59.380Z,22.94
2022-09-09T06:46:28.964Z,22.99
2022-09-09T06:48:57.059Z,23.04
2022-09-09T06:51:24.956Z,23.08
2022-09-09T06:53:54.550Z,23.13
2022-09-09T06:56:32.696Z,23.16
2022-09-09T06:59:03.504Z,23.21
2022-09-09T07:01:32.789Z,23.25
2022-09-09T07:04:00.912Z,23.29
2022-09-09T07:06:29.993Z,23.31
2022-09-09T07:09:01.986Z,23.32
2022-09-09T07:11:31.346Z,23.36
2022-09-09T07:13:59.934Z,23.39
2022-09-09T07:16:26.747Z,23.43
2022-09-09T07:18:53.685Z,23.49
2022-09-09T07:21:21.933Z,23.52
2022-09-09T07:23:48.442Z,23.55
2022-09-09T07:26:18.123Z,23.58
2022-09-09T07:28:44.591Z,23.66
2022-09-09T07:31:17.537Z,23.70
2022-09-09T07:33:45.404Z,23.77
2022-09-09T07:36:24.974Z,23.77
2022-09-09T07:38:54.310Z,23.80
2022-09-09T07:41:29.666Z,23.78
2022-09-09T07:43:56.144Z,23.81
2022-09-09T07:46:25.404Z,23.78
2022-09-09T07:48:56.936Z,23.74
2022-09-09T07:51:29.287Z,23.74
2022-09-09T07:53:59.036Z,23.74
2022-09-09T07:56:27.087Z,23.75
2022-09-09T07:58:55.674Z,23.81
2022-09-09T08:01:22.017Z,23.95
2022-09-09T08:03:56.711Z,24.17
2022-09-09T08:06:23.353Z,24.39
2022-09-09T08:08:52.467Z,24.59
2022-09-09T08:11:19.607Z,24.83
2022-09-09T08:13:48.064Z,25.04
2022-09-09T08:16:19.148Z,25.17
2022-09-09T08:18:45.765Z,25.31
2022-09-09T08:21:15.758Z,25.44
2022-09-09T08:23:43.658Z,25.57
2022-09-09T08:26:16.122Z,25.68
2022-09-09T08:28:43.606Z,25.78
2022-09-09T08:31:32.423Z,25.81
2022-09-09T08:34:04.469Z,25.89
2022-09-09T08:36:36.911Z,25.91
2022-09-09T08:39:06.050Z,25.98
2022-09-09T08:41:44.572Z,26.03
2022-09-09T08:44:32.020Z,26.08
2022-09-09T08:47:34.102Z,26.12
2022-09-09T08:50:07.526Z,26.12
2022-09-09T08:53:02.617Z,26.05
2022-09-09T08:55:45.622Z,26.00
2022-09-09T08:58:25.871Z,25.92
2022-09-09T09:00:55.332Z,25.88
2022-09-09T09:03:40.382Z,25.83
2022-09-09T09:06:28.136Z,25.79
2022-09-09T09:09:20.615Z,25.80
2022-09-09T09:11:49.562Z,25.84
2022-09-09T09:14:26.294Z,25.81
2022-09-09T09:17:00.398Z,25.81
2022-09-09T09:19:29.532Z,25.86
2022-09-09T09:22:18.999Z,25.89
2022-09-09T09:25:06.105Z,25.97
2022-09-09T09:27:46.309Z,26.06
2022-09-09T09:30:29.014Z,26.14
2022-09-09T09:33:07.527Z,26.24
2022-09-09T09:35:38.579Z,26.33
2022-09-09T09:41:07.620Z,26.52
2022-09-09T09:43:36.749Z,26.59
2022-09-09T09:46:20.218Z,26.64
2022-09-09T09:48:57.971Z,26.74
2022-09-09T09:51:26.043Z,26.88
2022-09-09T09:53:54.797Z,27.03
2022-09-09T09:56:33.462Z,27.13
2022-09-09T09:59:00.024Z,27.27
2022-09-09T10:01:30.623Z,27.35
2022-09-09T10:04:17.373Z,27.39
2022-09-09T10:06:43.895Z,27.47
2022-09-09T10:09:29.495Z,27.45
2022-09-09T10:12:07.962Z,27.49
2022-09-09T10:14:59.934Z,27.47
2022-09-09T10:18:05.044Z,27.46
2022-09-09T10:20:38.596Z,27.51
2022-09-09T10:23:38.271Z,27.48
2022-09-09T10:26:22.980Z,27.48
2022-09-09T10:29:09.740Z,27.45
2022-09-09T10:31:45.196Z,27.45
2022-09-09T10:34:32.463Z,27.39
2022-09-09T10:36:59.517Z,27.46
2022-09-09T10:39:40.728Z,27.47
2022-09-09T10:42:13.319Z,27.50
2022-09-09T10:44:39.833Z,27.53
2022-09-09T10:47:17.109Z,27.50
2022-09-09T10:50:12.924Z,27.51
2022-09-09T10:52:39.324Z,27.56
2022-09-09T10:55:20.847Z,27.53
2022-09-09T10:57:55.117Z,27.58
2022-09-09T11:00:32.238Z,27.61
2022-09-09T11:03:03.174Z,27.67
2022-09-09T11:05:42.253Z,27.69
2022-09-09T11:08:18.792Z,27.72
2022-09-09T11:10:57.724Z,27.76
2022-09-09T11:13:38.438Z,27.78
2022-09-09T11:16:39.438Z,27.81
2022-09-09T11:19:18.602Z,27.84
2022-09-09T11:21:48.387Z,27.87
2022-09-09T11:24:30.472Z,27.85
2022-09-09T11:27:04.047Z,27.92
2022-09-09T11:30:04.170Z,27.93
2022-09-09T11:33:15.545Z,27.99
2022-09-09T11:36:04.436Z,28.05
2022-09-09T11:38:46.774Z,28.03
2022-09-09T11:41:20.869Z,28.03
2022-09-09T11:43:54.533Z,28.00
2022-09-09T11:46:34.676Z,28.00
2022-09-09T11:49:04.575Z,28.00
2022-09-09T11:51:33.450Z,28.02
2022-09-09T11:54:03.669Z,28.04
2022-09-09T11:56:45.581Z,28.03
2022-09-09T11:59:25.561Z,28.07
2022-09-09T12:02:03.203Z,28.12
2022-09-09T12:04:34.112Z,28.15
2022-09-09T12:07:09.848Z,28.18
2022-09-09T12:09:53.688Z,28.15
2022-09-09T12:12:23.214Z,28.18
2022-09-09T12:14:58.821Z,28.15
2022-09-09T12:17:27.103Z,28.15
2022-09-09T12:20:09.599Z,28.12
2022-09-09T12:22:44.391Z,28.16
2022-09-09T12:25:41.753Z,28.10
2022-09-09T12:28:25.838Z,28.10
2022-09-09T12:31:29.587Z,28.10
2022-09-09T12:33:56.059Z,28.20
2022-09-09T12:36:31.111Z,28.23
2022-09-09T12:39:11.777Z,28.27
2022-09-09T12:41:38.291Z,28.30
2022-09-09T12:44:09.865Z,28.26
2022-09-09T12:46:43.152Z,28.21
2022-09-09T12:49:34.971Z,28.16
2022-09-09T12:52:08.196Z,28.15
2022-09-09T12:54:37.459Z,28.13
2022-09-09T12:57:05.457Z,28.09
2022-09-09T12:59:40.353Z,28.01
2022-09-09T13:02:20.577Z,27.91
2022-09-09T13:04:47.934Z,27.84
2022-09-09T13:07:17.008Z,27.71
2022-09-09T13:09:45.482Z,27.53
2022-09-09T13:12:21.934Z,27.27
2022-09-09T13:14:52.168Z,27.01
2022-09-09T13:17:29.912Z,26.69
2022-09-09T13:19:57.410Z,26.45
2022-09-09T13:22:38.473Z,26.16
2022-09-09T13:25:22.637Z,25.99
2022-09-09T13:28:04.119Z,25.86
2022-09-09T13:30:41.924Z,25.79
2022-09-09T13:33:15.500Z,25.74
2022-09-09T13:35:48.015Z,25.72
2022-09-09T13:38:18.395Z,25.70
2022-09-09T13:40:58.611Z,25.67
2022-09-09T13:43:27.039Z,25.68
2022-09-09T13:45:57.314Z,25.64
2022-09-09T13:48:24.690Z,25.63
2022-09-09T13:51:04.118Z,25.57
2022-09-09T13:53:31.492Z,25.60
2022-09-09T13:55:59.262Z,25.59
2022-09-09T13:58:27.406Z,25.60
2022-09-09T14:00:54.954Z,25.63
2022-09-09T14:03:22.125Z,25.68
2022-09-09T14:05:48.823Z,25.76
2022-09-09T14:08:25.068Z,25.83
2022-09-09T14:10:52.294Z,25.97
2022-09-09T14:13:18.911Z,26.08
2022-09-09T14:15:45.417Z,26.18
2022-09-09T14:18:14.459Z,26.26
2022-09-09T14:20:41.311Z,26.32
2022-09-09T14:23:12.167Z,26.35
2022-09-09T14:25:41.693Z,26.40
2022-09-09T14:28:10.962Z,26.45
2022-09-09T14:30:40.417Z,26.49
2022-09-09T14:33:09.367Z,26.50
2022-09-09T14:35:36.197Z,26.51
2022-09-09T14:38:03.697Z,26.49
2022-09-09T14:40:30.520Z,26.45
2022-09-09T14:42:57.460Z,26.40
2022-09-09T14:45:25.854Z,26.35
2022-09-09T14:47:52.930Z,26.30
2022-09-09T14:50:20.577Z,26.24
2022-09-09T14:52:47.594Z,26.20
2022-09-09T14:55:14.587Z,26.14
2022-09-09T14:57:41.260Z,26.12
2022-09-09T15:00:09.637Z,26.12
2022-09-09T15:02:36.277Z,26.14
2022-09-09T15:05:02.894Z,26.17
2022-09-09T15:07:29.370Z,26.21
2022-09-09T15:09:56.282Z,26.25
2022-09-09T15:12:22.774Z,26.30
2022-09-09T15:14:49.430Z,26.36
2022-09-09T15:17:15.906Z,26.40
2022-09-09T15:19:43.069Z,26.45
2022-09-09T15:22:09.998Z,26.48
2022-09-09T15:24:36.496Z,26.48
2022-09-09T15:27:03.088Z,26.47
2022-09-09T15:29:29.661Z,26.44
2022-09-09T15:31:56.490Z,26.39
2022-09-09T15:34:23.292Z,26.33
2022-09-09T15:36:49.747Z,26.28
2022-09-09T15:39:18.287Z,26.23
2022-09-09T15:41:45.442Z,26.21
2022-09-09T15:44:15.539Z,26.21
2022-09-09T15:47:00.548Z,26.14
2022-09-09T15:49:27.388Z,26.14
2022-09-09T15:51:56.344Z,26.11
2022-09-09T15:54:25.138Z,26.07
2022-09-09T15:56:59.001Z,26.03
2022-09-09T15:59:28.805Z,25.97
2022-09-09T16:01:55.977Z,25.89
2022-09-09T16:04:24.429Z,25.79
2022-09-09T16:07:02.717Z,25.64
2022-09-09T16:09:29.756Z,25.53
2022-09-09T16:12:07.372Z,25.31
2022-09-09T16:14:36.952Z,25.14
2022-09-09T16:17:06.056Z,24.91
2022-09-09T16:19:33.338Z,24.70
2022-09-09T16:21:59.835Z,24.46
2022-09-09T16:24:26.673Z,24.29
2022-09-09T16:26:55.229Z,24.08
2022-09-09T16:29:28.190Z,23.92
2022-09-09T16:31:56.318Z,23.80
2022-09-09T16:34:24.338Z,23.66
2022-09-09T16:36:50.948Z,23.54
2022-09-09T16:39:19.905Z,23.45
2022-09-09T16:41:48.421Z,23.37
2022-09-09T16:44:16.610Z,23.34
2022-09-09T16:46:45.212Z,23.34
2022-09-09T16:49:14.231Z,23.29
2022-09-09T16:51:43.362Z,23.25
2022-09-09T16:54:10.685Z,23.22
2022-09-09T16:56:42.154Z,23.20
2022-09-09T16:59:12.390Z,23.19
2022-09-09T17:01:41.839Z,23.19
2022-09-09T17:04:14.694Z,23.18
2022-09-09T17:06:42.378Z,23.18
2022-09-09T17:09:11.597Z,23.18
2022-09-09T17:11:39.542Z,23.18
2022-09-09T17:14:10.243Z,23.18
2022-09-09T17:16:37.749Z,23.21
2022-09-09T17:19:05.241Z,23.25
2022-09-09T17:21:33.213Z,23.27
2022-09-09T17:24:00.732Z,23.31
2022-09-09T17:26:30.120Z,23.32
2022-09-09T17:28:59.888Z,23.33
2022-09-09T17:31:28.561Z,23.31
2022-09-09T17:33:55.877Z,23.29
2022-09-09T17:36:24.850Z,23.27
2022-09-09T17:38:52.866Z,23.25
2022-09-09T17:41:26.519Z,23.25
2022-09-09T17:43:53.474Z,23.26
2022-09-09T17:46:25.925Z,23.24
2022-09-09T17:48:57.184Z,23.22
2022-09-09T17:51:28.299Z,23.22
2022-09-09T17:53:59.300Z,23.22
2022-09-09T17:56:29.158Z,23.21
2022-09-09T17:58:55.739Z,23.21
2022-09-09T18:01:28.357Z,23.17
2022-09-09T18:03:57.463Z,23.17
2022-09-09T18:06:29.514Z,23.13
2022-09-09T18:08:58.860Z,23.12
2022-09-09T18:11:28.544Z,23.10
2022-09-09T18:13:57.896Z,23.09
2022-09-09T18:16:26.791Z,23.06
2022-09-09T18:18:55.815Z,23.04
2022-09-09T18:21:23.476Z,23.03
2022-09-09T18:23:52.121Z,23.03
2022-09-09T18:26:21.779Z,23.00
2022-09-09T18:28:53.272Z,22.99
2022-09-09T18:31:23.489Z,22.97
2022-09-09T18:33:51.647Z,22.96
2022-09-09T18:36:20.773Z,22.94
2022-09-09T18:38:47.678Z,22.94
2022-09-09T18:41:18.965Z,22.90
2022-09-09T18:43:45.554Z,22.91
2022-09-09T18:46:12.829Z,22.90
2022-09-09T18:48:39.684Z,22.91
2022-09-09T18:51:08.770Z,22.90
2022-09-09T18:53:35.986Z,22.91
2022-09-09T18:56:08.388Z,22.89
2022-09-09T18:58:36.148Z,22.91
2022-09-09T19:01:06.724Z,22.88
2022-09-09T19:03:35.560Z,22.88
2022-09-09T19:06:05.076Z,22.86
2022-09-09T19:08:34.601Z,22.87
2022-09-09T19:11:02.578Z,22.84
2022-09-09T19:13:29.305Z,22.84
2022-09-09T19:15:55.829Z,22.83
2022-09-09T19:18:23.720Z,22.83
2022-09-09T19:20:50.258Z,22.83
2022-09-09T19:23:16.743Z,22.82
2022-09-09T19:25:43.231Z,22.82
2022-09-09T19:28:09.817Z,22.82
2022-09-09T19:30:36.428Z,22.81
2022-09-09T19:33:04.384Z,22.82
2022-09-09T19:35:31.435Z,22.82
2022-09-09T19:37:59.513Z,22.81
2022-09-09T19:40:26.926Z,22.81
2022-09-09T19:42:53.951Z,22.81
2022-09-09T19:45:20.507Z,22.80
2022-09-09T19:47:47.165Z,22.79
2022-09-09T19:50:13.654Z,22.77
2022-09-09T19:52:40.487Z,22.77
2022-09-09T19:55:07.208Z,22.74
2022-09-09T19:57:34.211Z,22.73
2022-09-09T20:00:00.931Z,22.70
2022-09-09T20:02:28.810Z,22.69
2022-09-09T20:04:55.423Z,22.67
2022-09-09T20:07:21.911Z,22.65
2022-09-09T20:09:48.367Z,22.62
2022-09-09T20:12:15.007Z,22.60
2022-09-09T20:14:41.766Z,22.60
2022-09-09T20:17:10.181Z,22.58
2022-09-09T20:19:36.784Z,22.57
2022-09-09T20:22:03.272Z,22.54
2022-09-09T20:24:29.756Z,22.54
2022-09-09T20:26:56.435Z,22.51
2022-09-09T20:29:22.999Z,22.50
2022-09-09T20:31:49.471Z,22.49
2022-09-09T20:34:21.779Z,22.47
2022-09-09T20:36:49.039Z,22.47
2022-09-09T20:39:18.147Z,22.46
2022-09-09T20:41:46.277Z,22.46
2022-09-09T20:44:19.212Z,22.45
2022-09-09T20:46:48.245Z,22.45
2022-09-09T20:49:17.214Z,22.44
2022-09-09T20:51:44.544Z,22.45
2022-09-09T20:54:17.133Z,22.45
2022-09-09T20:56:45.139Z,22.48
2022-09-09T20:59:14.202Z,22.47
2022-09-09T21:01:42.181Z,22.49
2022-09-09T21:04:09.784Z,22.49
2022-09-09T21:06:37.072Z,22.48
2022-09-09T21:09:03.800Z,22.49
2022-09-09T21:11:30.360Z,22.47
2022-09-09T21:13:56.918Z,22.46
2022-09-09T21:16:23.467Z,22.46
2022-09-09T21:18:50.471Z,22.45
2022-09-09T21:21:21.202Z,22.45
2022-09-09T21:23:48.869Z,22.45
2022-09-09T21:26:15.414Z,22.44
2022-09-09T21:28:41.886Z,22.44
2022-09-09T21:31:16.374Z,22.41
2022-09-09T21:33:43.188Z,22.42
2022-09-09T21:36:11.366Z,22.41
2022-09-09T21:38:40.320Z,22.41
2022-09-09T21:41:15.475Z,22.39
2022-09-09T21:43:44.241Z,22.40
2022-09-09T21:46:14.311Z,22.40
2022-09-09T21:48:40.946Z,22.41
2022-09-09T21:51:14.411Z,22.39
2022-09-09T21:53:41.241Z,22.41
2022-09-09T21:56:10.884Z,22.39
2022-09-09T21:58:37.723Z,22.40
2022-09-09T22:01:16.427Z,22.37
2022-09-09T22:03:43.823Z,22.41
2022-09-09T22:06:13.848Z,22.42
2022-09-09T22:08:40.959Z,22.41
2022-09-09T22:11:13.936Z,22.41
2022-09-09T22:13:40.870Z,22.42
2022-09-09T22:16:12.324Z,22.42
2022-09-09T22:18:39.135Z,22.45
2022-09-09T22:21:17.909Z,22.42
2022-09-09T22:23:47.713Z,22.46
2022-09-09T22:26:15.122Z,22.47
2022-09-09T22:28:41.589Z,22.48
2022-09-09T22:31:08.115Z,22.50
2022-09-09T22:33:35.069Z,22.51
2022-09-09T22:36:01.801Z,22.53
2022-09-09T22:38:28.267Z,22.54
2022-09-09T22:40:54.937Z,22.55
2022-09-09T22:43:22.778Z,22.56
2022-09-09T22:45:50.179Z,22.55
2022-09-09T22:48:16.977Z,22.57
2022-09-09T22:50:44.241Z,22.56
2022-09-09T22:53:14.413Z,22.56
2022-09-09T22:55:41.277Z,22.57
2022-09-09T22:58:07.943Z,22.55
2022-09-09T23:00:35.204Z,22.55
2022-09-09T23:03:01.714Z,22.54
2022-09-09T23:05:28.405Z,22.54
2022-09-09T23:07:58.287Z,22.53
2022-09-09T23:10:25.539Z,22.52
2022-09-09T23:12:52.407Z,22.51
2022-09-09T23:15:19.870Z,22.51
2022-09-09T23:17:46.441Z,22.50
2022-09-09T23:20:12.989Z,22.49
2022-09-09T23:22:40.504Z,22.47
2022-09-09T23:25:07.850Z,22.46
2022-09-09T23:27:37.325Z,22.45
2022-09-09T23:30:07.037Z,22.41
2022-09-09T23:32:33.640Z,22.39
2022-09-09T23:35:00.349Z,22.38
2022-09-09T23:37:26.831Z,22.35
2022-09-09T23:39:54.410Z,22.33
2022-09-09T23:42:20.891Z,22.32
2022-09-09T23:44:47.534Z,22.32
2022-09-09T23:47:14.633Z,22.29
2022-09-09T23:49:41.154Z,22.27
2022-09-09T23:52:07.644Z,22.26
2022-09-09T23:54:34.921Z,22.23
2022-09-09T23:57:03.074Z,22.21
2022-09-09T23:59:30.924Z,22.19
